sensor_id;sensor_type;location;lat;lon;timestamp;P1;durP1;ratioP1;P2;durP2;ratioP2
61895;SDS011;47835;52.778;5.956;2023-09-19T00:00:45;8.65;;;1.20;;
61895;SDS011;47835;52.778;5.956;2023-09-19T00:03:14;7.78;;;1.25;;
61895;SDS011;47835;52.778;5.956;2023-09-19T00:05:40;7.82;;;1.23;;
61895;SDS011;47835;52.778;5.956;2023-09-19T00:08:09;7.47;;;1.48;;
61895;SDS011;47835;52.778;5.956;2023-09-19T00:10:35;9.32;;;1.10;;
61895;SDS011;47835;52.778;5.956;2023-09-19T00:13:02;9.32;;;1.00;;
61895;SDS011;47835;52.778;5.956;2023-09-19T00:15:36;8.57;;;1.95;;
61895;SDS011;47835;52.778;5.956;2023-09-19T00:18:04;10.95;;;1.50;;
61895;SDS011;47835;52.778;5.956;2023-09-19T00:20:31;6.78;;;1.33;;
61895;SDS011;47835;52.778;5.956;2023-09-19T00:22:59;4.90;;;1.00;;
61895;SDS011;47835;52.778;5.956;2023-09-19T00:25:30;7.13;;;1.35;;
61895;SDS011;47835;52.778;5.956;2023-09-19T00:27:57;10.18;;;1.30;;
61895;SDS011;47835;52.778;5.956;2023-09-19T00:30:23;8.45;;;1.00;;
61895;SDS011;47835;52.778;5.956;2023-09-19T00:32:49;6.75;;;1.00;;
61895;SDS011;47835;52.778;5.956;2023-09-19T00:35:22;5.75;;;0.93;;
61895;SDS011;47835;52.778;5.956;2023-09-19T00:37:49;7.00;;;1.23;;
61895;SDS011;47835;52.778;5.956;2023-09-19T00:40:15;8.13;;;1.10;;
61895;SDS011;47835;52.778;5.956;2023-09-19T00:42:42;7.07;;;0.80;;
61895;SDS011;47835;52.778;5.956;2023-09-19T00:45:09;8.73;;;1.38;;
61895;SDS011;47835;52.778;5.956;2023-09-19T00:47:37;5.20;;;1.50;;
61895;SDS011;47835;52.778;5.956;2023-09-19T00:50:13;8.15;;;1.83;;
61895;SDS011;47835;52.778;5.956;2023-09-19T00:52:42;6.47;;;1.20;;
61895;SDS011;47835;52.778;5.956;2023-09-19T00:55:09;4.88;;;0.80;;
61895;SDS011;47835;52.778;5.956;2023-09-19T00:57:37;6.35;;;0.70;;
61895;SDS011;47835;52.778;5.956;2023-09-19T01:00:04;4.28;;;0.70;;
61895;SDS011;47835;52.778;5.956;2023-09-19T01:02:33;7.25;;;1.20;;
61895;SDS011;47835;52.778;5.956;2023-09-19T01:05:00;7.53;;;0.75;;
61895;SDS011;47835;52.778;5.956;2023-09-19T01:07:26;2.92;;;0.77;;
61895;SDS011;47835;52.778;5.956;2023-09-19T01:09:55;7.93;;;1.35;;
61895;SDS011;47835;52.778;5.956;2023-09-19T01:12:29;5.55;;;0.93;;
61895;SDS011;47835;52.778;5.956;2023-09-19T01:15:09;4.68;;;0.90;;
61895;SDS011;47835;52.778;5.956;2023-09-19T01:18:13;6.43;;;1.00;;
61895;SDS011;47835;52.778;5.956;2023-09-19T01:32:01;12.65;;;1.13;;
61895;SDS011;47835;52.778;5.956;2023-09-19T01:34:45;5.82;;;1.05;;
61895;SDS011;47835;52.778;5.956;2023-09-19T01:37:19;5.40;;;1.00;;
61895;SDS011;47835;52.778;5.956;2023-09-19T01:39:50;3.55;;;0.80;;
61895;SDS011;47835;52.778;5.956;2023-09-19T01:45:03;4.00;;;1.02;;
61895;SDS011;47835;52.778;5.956;2023-09-19T01:47:44;3.95;;;1.58;;
61895;SDS011;47835;52.778;5.956;2023-09-19T01:53:06;7.18;;;1.15;;
61895;SDS011;47835;52.778;5.956;2023-09-19T01:55:40;9.75;;;1.17;;
61895;SDS011;47835;52.778;5.956;2023-09-19T01:58:14;8.82;;;2.00;;
61895;SDS011;47835;52.778;5.956;2023-09-19T02:00:44;7.07;;;1.15;;
61895;SDS011;47835;52.778;5.956;2023-09-19T02:03:13;6.43;;;1.23;;
61895;SDS011;47835;52.778;5.956;2023-09-19T02:05:39;7.40;;;1.38;;
61895;SDS011;47835;52.778;5.956;2023-09-19T02:08:05;6.18;;;1.42;;
61895;SDS011;47835;52.778;5.956;2023-09-19T02:10:31;4.90;;;1.25;;
61895;SDS011;47835;52.778;5.956;2023-09-19T02:12:56;10.27;;;2.65;;
61895;SDS011;47835;52.778;5.956;2023-09-19T02:15:22;5.53;;;1.38;;
61895;SDS011;47835;52.778;5.956;2023-09-19T02:17:48;9.45;;;1.40;;
61895;SDS011;47835;52.778;5.956;2023-09-19T02:20:13;4.30;;;1.40;;
61895;SDS011;47835;52.778;5.956;2023-09-19T02:22:40;9.15;;;1.38;;
61895;SDS011;47835;52.778;5.956;2023-09-19T02:25:07;3.65;;;1.38;;
61895;SDS011;47835;52.778;5.956;2023-09-19T02:27:33;6.68;;;1.25;;
61895;SDS011;47835;52.778;5.956;2023-09-19T02:29:59;6.45;;;1.45;;
61895;SDS011;47835;52.778;5.956;2023-09-19T02:32:28;4.47;;;1.10;;
61895;SDS011;47835;52.778;5.956;2023-09-19T02:34:56;7.15;;;1.40;;
61895;SDS011;47835;52.778;5.956;2023-09-19T02:37:23;9.07;;;1.80;;
61895;SDS011;47835;52.778;5.956;2023-09-19T02:39:48;5.93;;;1.17;;
61895;SDS011;47835;52.778;5.956;2023-09-19T02:42:14;4.60;;;1.00;;
61895;SDS011;47835;52.778;5.956;2023-09-19T02:44:39;5.78;;;1.52;;
61895;SDS011;47835;52.778;5.956;2023-09-19T02:47:05;8.30;;;1.35;;
61895;SDS011;47835;52.778;5.956;2023-09-19T02:49:31;6.20;;;1.27;;
61895;SDS011;47835;52.778;5.956;2023-09-19T02:51:57;5.30;;;1.20;;
61895;SDS011;47835;52.778;5.956;2023-09-19T02:54:23;7.28;;;1.35;;
61895;SDS011;47835;52.778;5.956;2023-09-19T02:56:49;8.18;;;1.63;;
61895;SDS011;47835;52.778;5.956;2023-09-19T02:59:15;7.90;;;1.10;;
61895;SDS011;47835;52.778;5.956;2023-09-19T03:01:42;7.20;;;1.30;;
61895;SDS011;47835;52.778;5.956;2023-09-19T03:04:08;7.57;;;1.30;;
61895;SDS011;47835;52.778;5.956;2023-09-19T03:06:36;5.18;;;0.70;;
61895;SDS011;47835;52.778;5.956;2023-09-19T03:09:03;8.20;;;1.42;;
61895;SDS011;47835;52.778;5.956;2023-09-19T03:11:31;6.03;;;1.40;;
61895;SDS011;47835;52.778;5.956;2023-09-19T03:13:56;4.47;;;0.85;;
61895;SDS011;47835;52.778;5.956;2023-09-19T03:16:23;9.07;;;1.13;;
61895;SDS011;47835;52.778;5.956;2023-09-19T03:18:49;7.03;;;1.40;;
61895;SDS011;47835;52.778;5.956;2023-09-19T03:21:15;8.75;;;1.42;;
61895;SDS011;47835;52.778;5.956;2023-09-19T03:23:42;6.25;;;1.48;;
61895;SDS011;47835;52.778;5.956;2023-09-19T03:26:10;7.38;;;1.08;;
61895;SDS011;47835;52.778;5.956;2023-09-19T03:28:37;5.13;;;1.08;;
61895;SDS011;47835;52.778;5.956;2023-09-19T03:31:04;5.38;;;1.33;;
61895;SDS011;47835;52.778;5.956;2023-09-19T03:33:30;6.20;;;1.27;;
61895;SDS011;47835;52.778;5.956;2023-09-19T03:35:58;5.85;;;1.10;;
61895;SDS011;47835;52.778;5.956;2023-09-19T03:38:24;6.78;;;1.23;;
61895;SDS011;47835;52.778;5.956;2023-09-19T03:40:50;7.88;;;1.65;;
61895;SDS011;47835;52.778;5.956;2023-09-19T03:43:16;6.65;;;1.05;;
61895;SDS011;47835;52.778;5.956;2023-09-19T03:45:42;7.10;;;1.40;;
61895;SDS011;47835;52.778;5.956;2023-09-19T03:48:11;4.95;;;0.88;;
61895;SDS011;47835;52.778;5.956;2023-09-19T03:50:37;6.13;;;1.27;;
61895;SDS011;47835;52.778;5.956;2023-09-19T03:53:03;6.20;;;1.10;;
61895;SDS011;47835;52.778;5.956;2023-09-19T03:55:29;4.38;;;1.00;;
61895;SDS011;47835;52.778;5.956;2023-09-19T03:57:57;4.55;;;1.17;;
61895;SDS011;47835;52.778;5.956;2023-09-19T04:00:23;8.68;;;1.17;;
61895;SDS011;47835;52.778;5.956;2023-09-19T04:02:51;6.47;;;1.55;;
61895;SDS011;47835;52.778;5.956;2023-09-19T04:05:18;9.65;;;1.70;;
61895;SDS011;47835;52.778;5.956;2023-09-19T04:07:44;8.20;;;1.42;;
61895;SDS011;47835;52.778;5.956;2023-09-19T04:10:09;4.32;;;1.02;;
61895;SDS011;47835;52.778;5.956;2023-09-19T04:12:36;6.15;;;1.40;;
61895;SDS011;47835;52.778;5.956;2023-09-19T04:15:02;8.10;;;1.55;;
61895;SDS011;47835;52.778;5.956;2023-09-19T04:17:28;8.45;;;1.70;;
61895;SDS011;47835;52.778;5.956;2023-09-19T04:19:54;5.28;;;1.63;;
61895;SDS011;47835;52.778;5.956;2023-09-19T04:22:19;5.05;;;1.35;;
61895;SDS011;47835;52.778;5.956;2023-09-19T04:24:45;7.20;;;1.30;;
61895;SDS011;47835;52.778;5.956;2023-09-19T04:27:10;4.88;;;1.30;;
61895;SDS011;47835;52.778;5.956;2023-09-19T04:29:39;6.05;;;1.20;;
61895;SDS011;47835;52.778;5.956;2023-09-19T04:32:06;4.97;;;1.00;;
61895;SDS011;47835;52.778;5.956;2023-09-19T04:34:32;8.05;;;1.80;;
61895;SDS011;47835;52.778;5.956;2023-09-19T04:36:59;8.52;;;1.63;;
61895;SDS011;47835;52.778;5.956;2023-09-19T04:39:25;7.88;;;1.05;;
61895;SDS011;47835;52.778;5.956;2023-09-19T04:41:52;7.00;;;1.85;;
61895;SDS011;47835;52.778;5.956;2023-09-19T04:44:18;5.45;;;1.35;;
61895;SDS011;47835;52.778;5.956;2023-09-19T04:46:44;9.63;;;1.77;;
61895;SDS011;47835;52.778;5.956;2023-09-19T04:49:11;7.20;;;1.73;;
61895;SDS011;47835;52.778;5.956;2023-09-19T04:51:37;8.82;;;1.70;;
61895;SDS011;47835;52.778;5.956;2023-09-19T04:54:03;8.00;;;1.48;;
61895;SDS011;47835;52.778;5.956;2023-09-19T04:56:29;5.60;;;0.98;;
61895;SDS011;47835;52.778;5.956;2023-09-19T04:58:55;6.40;;;1.30;;
61895;SDS011;47835;52.778;5.956;2023-09-19T05:01:22;9.43;;;2.45;;
61895;SDS011;47835;52.778;5.956;2023-09-19T05:03:47;5.03;;;1.20;;
61895;SDS011;47835;52.778;5.956;2023-09-19T05:06:17;3.65;;;1.02;;
61895;SDS011;47835;52.778;5.956;2023-09-19T05:08:47;6.43;;;1.45;;
61895;SDS011;47835;52.778;5.956;2023-09-19T05:11:16;6.88;;;1.90;;
61895;SDS011;47835;52.778;5.956;2023-09-19T05:13:46;6.07;;;1.45;;
61895;SDS011;47835;52.778;5.956;2023-09-19T05:16:12;7.45;;;1.25;;
61895;SDS011;47835;52.778;5.956;2023-09-19T05:18:38;3.22;;;1.08;;
61895;SDS011;47835;52.778;5.956;2023-09-19T05:21:04;8.77;;;1.70;;
61895;SDS011;47835;52.778;5.956;2023-09-19T05:23:30;5.80;;;1.17;;
61895;SDS011;47835;52.778;5.956;2023-09-19T05:25:56;9.05;;;1.80;;
61895;SDS011;47835;52.778;5.956;2023-09-19T05:28:23;8.13;;;1.52;;
61895;SDS011;47835;52.778;5.956;2023-09-19T05:30:49;7.72;;;1.38;;
61895;SDS011;47835;52.778;5.956;2023-09-19T05:33:15;9.10;;;1.45;;
61895;SDS011;47835;52.778;5.956;2023-09-19T05:35:40;6.55;;;1.27;;
61895;SDS011;47835;52.778;5.956;2023-09-19T05:38:06;8.45;;;1.75;;
61895;SDS011;47835;52.778;5.956;2023-09-19T05:40:37;12.00;;;1.50;;
61895;SDS011;47835;52.778;5.956;2023-09-19T05:43:04;9.35;;;1.60;;
61895;SDS011;47835;52.778;5.956;2023-09-19T05:45:31;6.97;;;1.35;;
61895;SDS011;47835;52.778;5.956;2023-09-19T05:48:05;7.53;;;1.38;;
61895;SDS011;47835;52.778;5.956;2023-09-19T05:50:42;9.35;;;1.88;;
61895;SDS011;47835;52.778;5.956;2023-09-19T05:53:08;7.53;;;1.15;;
61895;SDS011;47835;52.778;5.956;2023-09-19T05:55:39;8.18;;;1.42;;
61895;SDS011;47835;52.778;5.956;2023-09-19T05:58:08;4.57;;;1.40;;
61895;SDS011;47835;52.778;5.956;2023-09-19T06:00:35;10.43;;;1.73;;
61895;SDS011;47835;52.778;5.956;2023-09-19T06:03:01;7.32;;;1.60;;
61895;SDS011;47835;52.778;5.956;2023-09-19T06:05:27;7.47;;;1.30;;
61895;SDS011;47835;52.778;5.956;2023-09-19T06:07:55;11.30;;;2.67;;
61895;SDS011;47835;52.778;5.956;2023-09-19T06:10:24;6.32;;;1.30;;
61895;SDS011;47835;52.778;5.956;2023-09-19T06:12:50;8.57;;;1.63;;
61895;SDS011;47835;52.778;5.956;2023-09-19T06:15:16;4.57;;;1.08;;
61895;SDS011;47835;52.778;5.956;2023-09-19T06:17:50;9.50;;;2.65;;
61895;SDS011;47835;52.778;5.956;2023-09-19T06:20:20;9.38;;;1.52;;
61895;SDS011;47835;52.778;5.956;2023-09-19T06:22:48;7.88;;;1.70;;
61895;SDS011;47835;52.778;5.956;2023-09-19T06:25:15;8.07;;;2.15;;
61895;SDS011;47835;52.778;5.956;2023-09-19T06:27:51;6.50;;;1.75;;
61895;SDS011;47835;52.778;5.956;2023-09-19T06:30:20;9.90;;;1.60;;
61895;SDS011;47835;52.778;5.956;2023-09-19T06:32:48;6.00;;;1.42;;
61895;SDS011;47835;52.778;5.956;2023-09-19T06:35:14;6.70;;;1.63;;
61895;SDS011;47835;52.778;5.956;2023-09-19T06:37:41;7.38;;;1.73;;
61895;SDS011;47835;52.778;5.956;2023-09-19T06:42:38;8.10;;;1.58;;
61895;SDS011;47835;52.778;5.956;2023-09-19T06:45:07;10.02;;;2.67;;
61895;SDS011;47835;52.778;5.956;2023-09-19T06:47:36;6.82;;;1.42;;
61895;SDS011;47835;52.778;5.956;2023-09-19T06:50:02;9.30;;;1.80;;
61895;SDS011;47835;52.778;5.956;2023-09-19T06:52:29;13.63;;;1.88;;
61895;SDS011;47835;52.778;5.956;2023-09-19T06:54:55;8.10;;;1.67;;
61895;SDS011;47835;52.778;5.956;2023-09-19T06:57:21;7.35;;;1.05;;
61895;SDS011;47835;52.778;5.956;2023-09-19T06:59:47;7.90;;;1.52;;
61895;SDS011;47835;52.778;5.956;2023-09-19T07:02:12;6.53;;;1.42;;
61895;SDS011;47835;52.778;5.956;2023-09-19T07:04:39;6.97;;;2.03;;
61895;SDS011;47835;52.778;5.956;2023-09-19T07:07:04;7.55;;;1.45;;
61895;SDS011;47835;52.778;5.956;2023-09-19T07:09:30;10.57;;;1.75;;
61895;SDS011;47835;52.778;5.956;2023-09-19T07:11:56;10.00;;;1.73;;
61895;SDS011;47835;52.778;5.956;2023-09-19T07:14:22;7.93;;;1.70;;
61895;SDS011;47835;52.778;5.956;2023-09-19T07:16:48;6.50;;;1.80;;
61895;SDS011;47835;52.778;5.956;2023-09-19T07:19:14;8.65;;;1.85;;
61895;SDS011;47835;52.778;5.956;2023-09-19T07:21:40;8.07;;;1.88;;
61895;SDS011;47835;52.778;5.956;2023-09-19T07:24:09;8.57;;;1.70;;
61895;SDS011;47835;52.778;5.956;2023-09-19T07:26:35;7.85;;;1.55;;
61895;SDS011;47835;52.778;5.956;2023-09-19T07:29:01;5.93;;;1.50;;
61895;SDS011;47835;52.778;5.956;2023-09-19T07:31:29;9.23;;;2.17;;
61895;SDS011;47835;52.778;5.956;2023-09-19T07:33:55;12.73;;;2.67;;
61895;SDS011;47835;52.778;5.956;2023-09-19T07:36:21;5.72;;;1.35;;
61895;SDS011;47835;52.778;5.956;2023-09-19T07:38:49;9.15;;;1.73;;
61895;SDS011;47835;52.778;5.956;2023-09-19T07:41:15;7.88;;;1.63;;
61895;SDS011;47835;52.778;5.956;2023-09-19T07:43:40;5.00;;;1.88;;
61895;SDS011;47835;52.778;5.956;2023-09-19T07:46:06;9.85;;;1.80;;
61895;SDS011;47835;52.778;5.956;2023-09-19T07:48:34;7.63;;;1.58;;
61895;SDS011;47835;52.778;5.956;2023-09-19T07:51:01;9.65;;;1.50;;
61895;SDS011;47835;52.778;5.956;2023-09-19T07:53:28;5.75;;;1.33;;
61895;SDS011;47835;52.778;5.956;2023-09-19T07:56:01;12.35;;;2.10;;
61895;SDS011;47835;52.778;5.956;2023-09-19T07:58:30;9.40;;;1.63;;
61895;SDS011;47835;52.778;5.956;2023-09-19T08:00:56;11.43;;;2.10;;
61895;SDS011;47835;52.778;5.956;2023-09-19T08:03:27;7.00;;;2.25;;
61895;SDS011;47835;52.778;5.956;2023-09-19T08:05:52;10.23;;;1.98;;
61895;SDS011;47835;52.778;5.956;2023-09-19T08:08:18;7.82;;;1.30;;
61895;SDS011;47835;52.778;5.956;2023-09-19T08:10:43;10.35;;;2.00;;
61895;SDS011;47835;52.778;5.956;2023-09-19T08:13:10;7.22;;;1.98;;
61895;SDS011;47835;52.778;5.956;2023-09-19T08:15:43;9.73;;;1.52;;
61895;SDS011;47835;52.778;5.956;2023-09-19T08:18:09;13.63;;;1.90;;
61895;SDS011;47835;52.778;5.956;2023-09-19T08:20:38;9.32;;;1.98;;
61895;SDS011;47835;52.778;5.956;2023-09-19T08:23:03;9.45;;;2.20;;
61895;SDS011;47835;52.778;5.956;2023-09-19T08:25:29;6.15;;;1.95;;
61895;SDS011;47835;52.778;5.956;2023-09-19T08:27:55;9.30;;;2.13;;
61895;SDS011;47835;52.778;5.956;2023-09-19T08:30:23;7.07;;;1.77;;
61895;SDS011;47835;52.778;5.956;2023-09-19T08:32:56;10.73;;;1.90;;
61895;SDS011;47835;52.778;5.956;2023-09-19T08:35:23;8.80;;;1.83;;
61895;SDS011;47835;52.778;5.956;2023-09-19T08:37:49;7.55;;;1.40;;
61895;SDS011;47835;52.778;5.956;2023-09-19T08:40:16;8.95;;;2.42;;
61895;SDS011;47835;52.778;5.956;2023-09-19T08:42:53;11.80;;;2.80;;
61895;SDS011;47835;52.778;5.956;2023-09-19T08:45:20;5.90;;;1.95;;
61895;SDS011;47835;52.778;5.956;2023-09-19T08:47:56;8.70;;;2.30;;
61895;SDS011;47835;52.778;5.956;2023-09-19T08:50:43;13.85;;;2.33;;
61895;SDS011;47835;52.778;5.956;2023-09-19T08:53:26;10.07;;;1.88;;
61895;SDS011;47835;52.778;5.956;2023-09-19T08:55:57;9.77;;;2.17;;
61895;SDS011;47835;52.778;5.956;2023-09-19T08:58:27;11.13;;;2.38;;
61895;SDS011;47835;52.778;5.956;2023-09-19T09:01:01;10.10;;;2.42;;
61895;SDS011;47835;52.778;5.956;2023-09-19T09:03:29;7.47;;;1.45;;
61895;SDS011;47835;52.778;5.956;2023-09-19T09:05:58;7.22;;;2.00;;
61895;SDS011;47835;52.778;5.956;2023-09-19T09:08:24;8.77;;;1.67;;
61895;SDS011;47835;52.778;5.956;2023-09-19T09:10:51;10.32;;;2.13;;
61895;SDS011;47835;52.778;5.956;2023-09-19T09:13:17;8.63;;;1.50;;
61895;SDS011;47835;52.778;5.956;2023-09-19T09:15:43;14.10;;;1.70;;
61895;SDS011;47835;52.778;5.956;2023-09-19T09:18:10;9.05;;;1.67;;
61895;SDS011;47835;52.778;5.956;2023-09-19T09:20:35;7.97;;;1.55;;
61895;SDS011;47835;52.778;5.956;2023-09-19T09:23:01;10.85;;;1.92;;
61895;SDS011;47835;52.778;5.956;2023-09-19T09:25:50;9.45;;;2.03;;
61895;SDS011;47835;52.778;5.956;2023-09-19T09:28:29;9.75;;;1.67;;
61895;SDS011;47835;52.778;5.956;2023-09-19T09:30:56;7.38;;;1.58;;
61895;SDS011;47835;52.778;5.956;2023-09-19T09:33:33;10.35;;;2.38;;
61895;SDS011;47835;52.778;5.956;2023-09-19T09:36:02;12.10;;;1.98;;
61895;SDS011;47835;52.778;5.956;2023-09-19T09:38:42;8.57;;;1.90;;
61895;SDS011;47835;52.778;5.956;2023-09-19T09:41:13;9.18;;;2.20;;
61895;SDS011;47835;52.778;5.956;2023-09-19T09:43:52;9.07;;;2.42;;
61895;SDS011;47835;52.778;5.956;2023-09-19T09:46:22;10.32;;;2.00;;
61895;SDS011;47835;52.778;5.956;2023-09-19T09:48:50;7.50;;;2.10;;
61895;SDS011;47835;52.778;5.956;2023-09-19T09:51:43;17.15;;;4.38;;
61895;SDS011;47835;52.778;5.956;2023-09-19T09:54:30;11.38;;;3.13;;
61895;SDS011;47835;52.778;5.956;2023-09-19T09:57:10;12.00;;;2.85;;
61895;SDS011;47835;52.778;5.956;2023-09-19T09:59:59;10.00;;;1.90;;
61895;SDS011;47835;52.778;5.956;2023-09-19T10:02:44;6.82;;;1.80;;
61895;SDS011;47835;52.778;5.956;2023-09-19T10:05:16;12.68;;;3.55;;
61895;SDS011;47835;52.778;5.956;2023-09-19T10:07:54;11.05;;;2.45;;
61895;SDS011;47835;52.778;5.956;2023-09-19T10:10:51;8.30;;;3.20;;
61895;SDS011;47835;52.778;5.956;2023-09-19T10:13:28;12.10;;;2.45;;
61895;SDS011;47835;52.778;5.956;2023-09-19T10:16:05;6.63;;;2.50;;
61895;SDS011;47835;52.778;5.956;2023-09-19T10:18:48;7.35;;;2.58;;
61895;SDS011;47835;52.778;5.956;2023-09-19T10:21:49;10.98;;;2.00;;
61895;SDS011;47835;52.778;5.956;2023-09-19T10:27:01;7.10;;;2.00;;
61895;SDS011;47835;52.778;5.956;2023-09-19T10:29:44;8.95;;;2.50;;
61895;SDS011;47835;52.778;5.956;2023-09-19T10:32:38;9.43;;;1.80;;
61895;SDS011;47835;52.778;5.956;2023-09-19T10:35:26;6.97;;;1.90;;
61895;SDS011;47835;52.778;5.956;2023-09-19T10:37:57;8.05;;;1.75;;
61895;SDS011;47835;52.778;5.956;2023-09-19T10:43:59;10.40;;;1.75;;
61895;SDS011;47835;52.778;5.956;2023-09-19T10:46:52;9.45;;;1.77;;
61895;SDS011;47835;52.778;5.956;2023-09-19T10:52:29;10.80;;;2.25;;
61895;SDS011;47835;52.778;5.956;2023-09-19T10:55:34;12.25;;;2.20;;
61895;SDS011;47835;52.778;5.956;2023-09-19T10:58:54;7.03;;;1.70;;
61895;SDS011;47835;52.778;5.956;2023-09-19T11:02:19;11.88;;;2.17;;
61895;SDS011;47835;52.778;5.956;2023-09-19T11:05:09;7.20;;;2.03;;
61895;SDS011;47835;52.778;5.956;2023-09-19T11:08:44;7.20;;;1.92;;
61895;SDS011;47835;52.778;5.956;2023-09-19T11:22:26;14.75;;;2.25;;
61895;SDS011;47835;52.778;5.956;2023-09-19T11:26:10;7.53;;;2.08;;
61895;SDS011;47835;52.778;5.956;2023-09-19T11:29:48;11.13;;;2.08;;
61895;SDS011;47835;52.778;5.956;2023-09-19T11:36:18;8.50;;;1.80;;
61895;SDS011;47835;52.778;5.956;2023-09-19T11:39:24;8.80;;;2.63;;
61895;SDS011;47835;52.778;5.956;2023-09-19T11:42:00;9.82;;;1.40;;
61895;SDS011;47835;52.778;5.956;2023-09-19T11:49:18;8.18;;;1.45;;
61895;SDS011;47835;52.778;5.956;2023-09-19T11:52:21;8.15;;;2.30;;
61895;SDS011;47835;52.778;5.956;2023-09-19T11:55:24;5.80;;;1.70;;
61895;SDS011;47835;52.778;5.956;2023-09-19T11:59:11;7.97;;;1.92;;
61895;SDS011;47835;52.778;5.956;2023-09-19T12:08:14;7.35;;;1.45;;
61895;SDS011;47835;52.778;5.956;2023-09-19T12:10:52;7.50;;;1.35;;
61895;SDS011;47835;52.778;5.956;2023-09-19T12:13:40;5.53;;;1.10;;
61895;SDS011;47835;52.778;5.956;2023-09-19T12:16:46;4.32;;;1.17;;
61895;SDS011;47835;52.778;5.956;2023-09-19T12:20:26;7.85;;;1.40;;
61895;SDS011;47835;52.778;5.956;2023-09-19T12:27:01;6.80;;;1.08;;
61895;SDS011;47835;52.778;5.956;2023-09-19T12:33:47;6.22;;;1.40;;
61895;SDS011;47835;52.778;5.956;2023-09-19T12:41:07;6.00;;;1.02;;
61895;SDS011;47835;52.778;5.956;2023-09-19T12:43:59;4.38;;;0.93;;
61895;SDS011;47835;52.778;5.956;2023-09-19T12:53:27;8.10;;;1.35;;
61895;SDS011;47835;52.778;5.956;2023-09-19T12:56:39;7.28;;;1.08;;
61895;SDS011;47835;52.778;5.956;2023-09-19T12:59:29;6.18;;;0.98;;
61895;SDS011;47835;52.778;5.956;2023-09-19T13:02:04;6.60;;;0.90;;
61895;SDS011;47835;52.778;5.956;2023-09-19T13:05:05;3.03;;;0.88;;
61895;SDS011;47835;52.778;5.956;2023-09-19T13:07:59;4.35;;;0.98;;
61895;SDS011;47835;52.778;5.956;2023-09-19T13:11:35;6.70;;;0.70;;
61895;SDS011;47835;52.778;5.956;2023-09-19T13:17:48;4.45;;;0.90;;
61895;SDS011;47835;52.778;5.956;2023-09-19T13:21:26;6.68;;;0.65;;
61895;SDS011;47835;52.778;5.956;2023-09-19T13:24:31;6.47;;;1.20;;
61895;SDS011;47835;52.778;5.956;2023-09-19T13:28:00;4.22;;;0.85;;
61895;SDS011;47835;52.778;5.956;2023-09-19T13:31:05;5.18;;;1.17;;
61895;SDS011;47835;52.778;5.956;2023-09-19T13:40:19;7.15;;;1.20;;
61895;SDS011;47835;52.778;5.956;2023-09-19T13:43:11;4.65;;;0.77;;
61895;SDS011;47835;52.778;5.956;2023-09-19T13:46:27;9.15;;;1.58;;
61895;SDS011;47835;52.778;5.956;2023-09-19T13:49:30;6.40;;;1.08;;
61895;SDS011;47835;52.778;5.956;2023-09-19T13:52:19;4.25;;;1.30;;
61895;SDS011;47835;52.778;5.956;2023-09-19T13:55:44;4.57;;;1.05;;
61895;SDS011;47835;52.778;5.956;2023-09-19T13:58:57;5.95;;;1.05;;
61895;SDS011;47835;52.778;5.956;2023-09-19T14:01:28;7.32;;;1.05;;
61895;SDS011;47835;52.778;5.956;2023-09-19T14:04:08;7.57;;;1.00;;
61895;SDS011;47835;52.778;5.956;2023-09-19T14:10:45;5.93;;;1.10;;
61895;SDS011;47835;52.778;5.956;2023-09-19T14:13:43;2.42;;;0.70;;
61895;SDS011;47835;52.778;5.956;2023-09-19T14:16:31;3.30;;;0.80;;
61895;SDS011;47835;52.778;5.956;2023-09-19T14:22:58;4.75;;;1.05;;
61895;SDS011;47835;52.778;5.956;2023-09-19T14:25:45;7.03;;;1.00;;
61895;SDS011;47835;52.778;5.956;2023-09-19T14:28:33;2.35;;;0.80;;
61895;SDS011;47835;52.778;5.956;2023-09-19T14:34:30;4.25;;;1.00;;
61895;SDS011;47835;52.778;5.956;2023-09-19T14:40:44;4.40;;;1.00;;
61895;SDS011;47835;52.778;5.956;2023-09-19T14:47:47;3.70;;;0.80;;
61895;SDS011;47835;52.778;5.956;2023-09-19T14:50:29;2.17;;;0.80;;
61895;SDS011;47835;52.778;5.956;2023-09-19T14:53:34;3.58;;;1.10;;
61895;SDS011;47835;52.778;5.956;2023-09-19T15:00:20;5.57;;;1.20;;
61895;SDS011;47835;52.778;5.956;2023-09-19T15:03:59;5.60;;;1.30;;
61895;SDS011;47835;52.778;5.956;2023-09-19T15:06:31;6.82;;;1.45;;
61895;SDS011;47835;52.778;5.956;2023-09-19T15:09:46;4.88;;;1.23;;
61895;SDS011;47835;52.778;5.956;2023-09-19T15:16:18;6.60;;;1.20;;
61895;SDS011;47835;52.778;5.956;2023-09-19T15:19:16;3.58;;;1.15;;
61895;SDS011;47835;52.778;5.956;2023-09-19T15:25:10;3.30;;;1.13;;
61895;SDS011;47835;52.778;5.956;2023-09-19T15:28:11;5.28;;;1.65;;
61895;SDS011;47835;52.778;5.956;2023-09-19T15:31:08;5.93;;;1.25;;
61895;SDS011;47835;52.778;5.956;2023-09-19T15:36:57;4.40;;;1.15;;
61895;SDS011;47835;52.778;5.956;2023-09-19T15:42:59;4.72;;;1.17;;
61895;SDS011;47835;52.778;5.956;2023-09-19T15:45:44;7.55;;;1.40;;
61895;SDS011;47835;52.778;5.956;2023-09-19T15:48:34;3.10;;;1.20;;
61895;SDS011;47835;52.778;5.956;2023-09-19T15:51:04;3.38;;;1.05;;
61895;SDS011;47835;52.778;5.956;2023-09-19T15:59:28;6.40;;;1.50;;
61895;SDS011;47835;52.778;5.956;2023-09-19T16:01:56;5.70;;;1.67;;
61895;SDS011;47835;52.778;5.956;2023-09-19T16:07:26;5.07;;;1.63;;
61895;SDS011;47835;52.778;5.956;2023-09-19T16:09:52;5.55;;;2.03;;
61895;SDS011;47835;52.778;5.956;2023-09-19T16:12:23;4.85;;;1.73;;
61895;SDS011;47835;52.778;5.956;2023-09-19T16:15:01;8.43;;;2.22;;
61895;SDS011;47835;52.778;5.956;2023-09-19T16:17:27;6.72;;;1.83;;
61895;SDS011;47835;52.778;5.956;2023-09-19T16:19:55;7.13;;;2.22;;
61895;SDS011;47835;52.778;5.956;2023-09-19T16:22:21;5.88;;;2.63;;
61895;SDS011;47835;52.778;5.956;2023-09-19T16:24:51;4.38;;;2.30;;
61895;SDS011;47835;52.778;5.956;2023-09-19T16:27:17;6.13;;;2.20;;
61895;SDS011;47835;52.778;5.956;2023-09-19T16:29:46;5.82;;;1.85;;
61895;SDS011;47835;52.778;5.956;2023-09-19T16:32:13;10.55;;;3.13;;
61895;SDS011;47835;52.778;5.956;2023-09-19T16:34:40;5.78;;;1.92;;
61895;SDS011;47835;52.778;5.956;2023-09-19T16:37:06;4.32;;;2.00;;
61895;SDS011;47835;52.778;5.956;2023-09-19T16:39:31;8.82;;;2.55;;
61895;SDS011;47835;52.778;5.956;2023-09-19T16:42:05;5.95;;;2.10;;
61895;SDS011;47835;52.778;5.956;2023-09-19T16:44:45;6.03;;;2.15;;
61895;SDS011;47835;52.778;5.956;2023-09-19T16:47:23;7.80;;;2.70;;
61895;SDS011;47835;52.778;5.956;2023-09-19T16:49:49;7.05;;;2.50;;
61895;SDS011;47835;52.778;5.956;2023-09-19T16:52:14;8.80;;;2.47;;
61895;SDS011;47835;52.778;5.956;2023-09-19T16:54:40;7.72;;;2.40;;
61895;SDS011;47835;52.778;5.956;2023-09-19T16:57:05;6.25;;;2.40;;
61895;SDS011;47835;52.778;5.956;2023-09-19T16:59:31;11.00;;;2.70;;
61895;SDS011;47835;52.778;5.956;2023-09-19T17:01:58;6.70;;;2.35;;
61895;SDS011;47835;52.778;5.956;2023-09-19T17:04:24;9.38;;;2.25;;
61895;SDS011;47835;52.778;5.956;2023-09-19T17:06:49;6.68;;;1.88;;
61895;SDS011;47835;52.778;5.956;2023-09-19T17:09:17;6.88;;;2.90;;
61895;SDS011;47835;52.778;5.956;2023-09-19T17:11:43;6.97;;;2.55;;
61895;SDS011;47835;52.778;5.956;2023-09-19T17:14:11;7.05;;;2.70;;
61895;SDS011;47835;52.778;5.956;2023-09-19T17:16:36;6.50;;;2.85;;
61895;SDS011;47835;52.778;5.956;2023-09-19T17:19:02;8.60;;;2.83;;
61895;SDS011;47835;52.778;5.956;2023-09-19T17:21:29;8.25;;;2.50;;
61895;SDS011;47835;52.778;5.956;2023-09-19T17:23:55;12.55;;;3.60;;
61895;SDS011;47835;52.778;5.956;2023-09-19T17:26:23;6.50;;;2.70;;
61895;SDS011;47835;52.778;5.956;2023-09-19T17:28:50;6.30;;;2.10;;
61895;SDS011;47835;52.778;5.956;2023-09-19T17:31:16;5.85;;;2.25;;
61895;SDS011;47835;52.778;5.956;2023-09-19T17:33:44;8.02;;;2.20;;
61895;SDS011;47835;52.778;5.956;2023-09-19T17:38:41;9.15;;;2.90;;
61895;SDS011;47835;52.778;5.956;2023-09-19T17:41:11;10.98;;;3.30;;